This is the latest recevied weather packets stored in our database for station/object OM0AGP-15. If no packets are shown the sender has not sent any weather packets the latest 10 day(s).
| Time | Temp. | Humidity | Pressure | Rain* | Wind** | Luminosity | Snow |
|---|---|---|---|---|---|---|---|
| 1777699885 | 17.22° C | 38% | 1024.1 hPa | - | - | - | - |
| 1777698985 | 15° C | 41% | 1024.1 hPa | - | - | - | - |
| 1777698085 | 13.33° C | 46% | 1024.2 hPa | - | - | - | - |
| 1777697185 | 11.11° C | 50% | 1024.2 hPa | - | - | - | - |
| 1777696285 | 8.33° C | 60% | 1024.1 hPa | - | - | - | - |
| 1777695385 | 5° C | 76% | 1024 hPa | - | - | - | - |
| 1777694485 | 3.33° C | 85% | 1023.9 hPa | - | - | - | - |
| 1777693585 | 3.33° C | 85% | 1023.8 hPa | - | - | - | - |
| 1777692685 | 2.78° C | 85% | 1023.8 hPa | - | - | - | - |
| 1777691785 | 3.33° C | 81% | 1023.7 hPa | - | - | - | - |
| 1777690885 | 3.33° C | 84% | 1023.7 hPa | - | - | - | - |
| 1777689984 | 3.89° C | 78% | 1023.8 hPa | - | - | - | - |
| 1777689085 | 4.44° C | 76% | 1023.7 hPa | - | - | - | - |
| 1777688184 | 4.44° C | 76% | 1023.7 hPa | - | - | - | - |
| 1777687284 | 5° C | 74% | 1023.7 hPa | - | - | - | - |
| 1777686384 | 5° C | 72% | 1023.7 hPa | - | - | - | - |
| 1777685484 | 6.11° C | 69% | 1023.7 hPa | - | - | - | - |
| 1777684584 | 6.67° C | 68% | 1023.7 hPa | - | - | - | - |
| 1777683684 | 7.22° C | 64% | 1023.7 hPa | - | - | - | - |
| 1777682784 | 7.22° C | 63% | 1023.9 hPa | - | - | - | - |
| 1777681884 | 7.22° C | 64% | 1023.9 hPa | - | - | - | - |
| 1777680984 | 7.22° C | 66% | 1023.9 hPa | - | - | - | - |
| 1777680084 | 6.67° C | 67% | 1023.9 hPa | - | - | - | - |
| 1777679184 | 6.67° C | 68% | 1023.9 hPa | - | - | - | - |
| 1777678284 | 6.67° C | 69% | 1024 hPa | - | - | - | - |
* Rain since midnight (hover to see other rain measurements)
** Current wind speed in m/s (hover to see current wind gust speed)